createdAt,value
2018-08-22T00:00:08.625Z,4.70
2018-08-22T00:02:37.624Z,4.33
2018-08-22T00:05:06.678Z,4.90
2018-08-22T00:07:35.669Z,4.87
2018-08-22T00:10:04.794Z,4.53
2018-08-22T00:12:33.832Z,4.60
2018-08-22T00:15:02.839Z,4.30
2018-08-22T00:17:31.968Z,4.23
2018-08-22T00:20:01.105Z,4.70
2018-08-22T00:22:30.142Z,4.27
2018-08-22T00:24:59.193Z,4.83
2018-08-22T00:27:28.198Z,4.20
2018-08-22T00:29:57.221Z,4.50
2018-08-22T00:32:26.258Z,5.27
2018-08-22T00:34:55.305Z,4.70
2018-08-22T00:37:24.336Z,4.23
2018-08-22T00:39:53.332Z,4.10
2018-08-22T00:42:22.365Z,4.20
2018-08-22T00:44:51.485Z,4.70
2018-08-22T00:47:20.518Z,4.57
2018-08-22T00:49:49.545Z,4.70
2018-08-22T00:52:18.621Z,4.87
2018-08-22T00:54:47.646Z,4.80
2018-08-22T00:57:16.674Z,4.60
2018-08-22T00:59:45.702Z,5.07
2018-08-22T01:02:14.777Z,5.07
2018-08-22T01:04:43.785Z,5.57
2018-08-22T01:07:12.826Z,4.80
2018-08-22T01:09:41.819Z,5.00
2018-08-22T01:12:10.853Z,5.33
2018-08-22T01:14:39.889Z,4.93
2018-08-22T01:17:08.963Z,5.60
2018-08-22T01:19:37.989Z,4.77
2018-08-22T01:22:07.242Z,4.37
2018-08-22T01:24:36.280Z,5.40
2018-08-22T01:27:05.333Z,5.50
2018-08-22T01:29:34.347Z,6.13
2018-08-22T01:32:03.369Z,5.40
2018-08-22T01:34:32.359Z,5.50
2018-08-22T01:37:01.381Z,5.67
2018-08-22T01:39:30.401Z,5.00
2018-08-22T01:41:59.389Z,4.80
2018-08-22T01:44:28.417Z,5.20
2018-08-22T01:46:57.409Z,5.87
2018-08-22T01:49:26.445Z,5.63
2018-08-22T01:51:55.474Z,5.70
2018-08-22T01:54:24.497Z,5.60
2018-08-22T01:56:53.577Z,6.27
2018-08-22T01:59:22.576Z,5.70
2018-08-22T02:01:51.665Z,5.70
2018-08-22T02:04:20.821Z,5.63
2018-08-22T02:06:50.076Z,6.07
2018-08-22T02:09:19.110Z,5.57
2018-08-22T02:11:48.113Z,6.23
2018-08-22T02:14:17.137Z,5.07
2018-08-22T02:16:46.150Z,5.60
2018-08-22T02:19:15.382Z,5.37
2018-08-22T02:21:44.424Z,5.30
2018-08-22T02:24:13.430Z,5.63
2018-08-22T02:26:42.467Z,5.83
2018-08-22T02:29:11.509Z,5.87
2018-08-22T02:31:40.514Z,5.23
2018-08-22T02:34:09.561Z,5.93
2018-08-22T02:36:38.582Z,5.57
2018-08-22T02:39:08.653Z,5.50
2018-08-22T02:41:37.742Z,5.37
2018-08-22T02:44:06.737Z,5.80
2018-08-22T02:46:35.761Z,5.87
2018-08-22T02:49:04.770Z,5.37
2018-08-22T02:51:33.791Z,5.30
2018-08-22T02:54:02.802Z,5.70
2018-08-22T02:56:31.822Z,5.27
2018-08-22T02:59:00.870Z,5.53
2018-08-22T03:01:29.950Z,5.97
2018-08-22T03:03:58.962Z,5.33
2018-08-22T03:06:27.951Z,5.70
2018-08-22T03:08:56.977Z,5.70
2018-08-22T03:11:26.005Z,6.07
2018-08-22T03:13:55.026Z,5.70
2018-08-22T03:16:24.053Z,6.10
2018-08-22T03:18:53.065Z,5.70
2018-08-22T03:21:22.130Z,6.03
2018-08-22T03:23:51.162Z,6.10
2018-08-22T03:26:20.167Z,5.37
2018-08-22T03:28:49.199Z,5.80
2018-08-22T03:31:18.310Z,5.23
2018-08-22T03:33:47.314Z,5.90
2018-08-22T03:36:16.378Z,6.77
2018-08-22T03:38:45.377Z,5.33
2018-08-22T03:41:14.397Z,5.70
2018-08-22T03:43:43.473Z,6.70
2018-08-22T03:46:12.510Z,5.40
2018-08-22T03:48:41.561Z,5.70
2018-08-22T03:51:10.542Z,5.67
2018-08-22T03:53:39.593Z,5.37
2018-08-22T03:56:08.618Z,5.10
2018-08-22T03:58:37.769Z,6.63
2018-08-22T04:01:06.823Z,5.63
2018-08-22T04:03:35.845Z,5.67
2018-08-22T04:06:04.882Z,5.97
2018-08-22T04:08:33.878Z,4.93
2018-08-22T04:11:02.914Z,5.63
2018-08-22T04:13:31.943Z,5.27
2018-08-22T04:16:00.946Z,5.23
2018-08-22T04:21:41.426Z,6.00
2018-08-22T04:24:10.566Z,5.70
2018-08-22T04:26:39.594Z,6.20
2018-08-22T04:29:08.594Z,5.70
2018-08-22T04:31:37.686Z,6.03
2018-08-22T04:34:06.722Z,5.97
2018-08-22T04:36:35.770Z,6.23
2018-08-22T04:39:06.139Z,5.73
2018-08-22T04:41:35.166Z,6.73
2018-08-22T04:44:04.209Z,6.63
2018-08-22T04:46:33.554Z,6.30
2018-08-22T04:49:02.630Z,5.87
2018-08-22T04:51:31.641Z,5.67
2018-08-22T04:54:00.739Z,7.03
2018-08-22T04:56:29.405Z,6.17
2018-08-22T04:58:58.466Z,5.83
2018-08-22T05:01:27.500Z,7.07
2018-08-22T05:03:56.493Z,6.37
2018-08-22T05:06:25.530Z,6.47
2018-08-22T05:08:54.566Z,6.47
2018-08-22T05:11:23.570Z,6.10
2018-08-22T05:13:52.597Z,7.00
2018-08-22T05:16:21.658Z,6.43
2018-08-22T05:18:50.708Z,6.80
2018-08-22T05:21:19.795Z,6.60
2018-08-22T05:23:48.802Z,7.03
2018-08-22T05:26:17.843Z,6.13
2018-08-22T05:28:46.890Z,5.90
2018-08-22T05:31:15.966Z,6.43
2018-08-22T05:33:45.024Z,5.97
2018-08-22T05:36:14.026Z,6.43
2018-08-22T05:38:43.088Z,6.50
2018-08-22T05:41:12.089Z,6.33
2018-08-22T05:43:41.478Z,5.73
2018-08-22T05:46:10.515Z,7.00
2018-08-22T05:48:39.541Z,6.77
2018-08-22T05:51:08.831Z,6.80
2018-08-22T05:53:37.842Z,6.00
2018-08-22T05:56:06.948Z,6.93
2018-08-22T05:58:36.339Z,6.60
2018-08-22T06:01:05.679Z,6.47
2018-08-22T06:03:35.022Z,6.10
2018-08-22T06:06:04.335Z,6.30
2018-08-22T06:08:33.624Z,6.30
2018-08-22T06:11:02.967Z,6.43
2018-08-22T06:13:32.299Z,6.90
2018-08-22T06:16:01.623Z,6.30
2018-08-22T06:18:30.892Z,6.33
2018-08-22T06:21:00.227Z,6.50
2018-08-22T06:23:29.558Z,7.07
2018-08-22T06:25:58.920Z,6.60
2018-08-22T06:28:28.290Z,6.07
2018-08-22T06:30:57.691Z,6.40
2018-08-22T06:33:26.987Z,6.60
2018-08-22T06:35:56.341Z,5.50
2018-08-22T06:38:25.615Z,5.83
2018-08-22T06:40:54.803Z,6.17
2018-08-22T06:43:24.131Z,5.60
2018-08-22T06:45:53.428Z,5.80
2018-08-22T06:48:23.248Z,6.23
2018-08-22T06:50:52.633Z,5.90
2018-08-22T06:53:21.931Z,6.13
2018-08-22T06:55:51.288Z,5.30
2018-08-22T06:58:20.620Z,5.17
2018-08-22T07:00:49.968Z,5.83
2018-08-22T07:03:19.227Z,5.77
2018-08-22T07:05:48.477Z,5.90
2018-08-22T07:08:17.815Z,5.23
2018-08-22T07:10:47.135Z,5.43
2018-08-22T07:13:16.496Z,5.77
2018-08-22T07:15:45.912Z,5.57
2018-08-22T07:18:15.211Z,4.60
2018-08-22T07:20:44.577Z,5.57
2018-08-22T07:23:13.852Z,5.10
2018-08-22T07:25:43.191Z,5.43
2018-08-22T07:28:12.595Z,5.40
2018-08-22T07:30:41.795Z,5.20
2018-08-22T07:33:11.123Z,5.20
2018-08-22T07:35:40.413Z,5.50
2018-08-22T07:38:09.657Z,5.70
2018-08-22T07:40:39.043Z,5.40
2018-08-22T07:43:09.244Z,5.17
2018-08-22T07:45:38.595Z,5.43
2018-08-22T07:48:07.851Z,4.87
2018-08-22T07:50:37.246Z,5.03
2018-08-22T07:53:06.769Z,4.87
2018-08-22T07:55:39.618Z,5.77
2018-08-22T07:58:08.948Z,4.73
2018-08-22T08:00:38.365Z,4.87
2018-08-22T08:03:07.742Z,4.83
2018-08-22T08:05:37.157Z,4.40
2018-08-22T08:08:06.540Z,4.93
2018-08-22T08:10:36.931Z,4.93
2018-08-22T08:13:15.594Z,4.87
2018-08-22T08:15:44.847Z,5.07
2018-08-22T08:18:14.138Z,4.83
2018-08-22T08:20:43.497Z,4.90
2018-08-22T08:23:12.817Z,4.57
2018-08-22T08:25:42.071Z,4.83
2018-08-22T08:28:16.632Z,5.17
2018-08-22T08:30:45.920Z,5.40
2018-08-22T08:33:15.358Z,5.43
2018-08-22T08:35:44.675Z,4.67
2018-08-22T08:38:13.971Z,4.60
2018-08-22T08:40:43.201Z,5.00
2018-08-22T08:43:12.509Z,4.33
2018-08-22T08:45:42.296Z,4.53
2018-08-22T08:48:11.598Z,5.33
2018-08-22T08:50:40.942Z,4.97
2018-08-22T08:53:10.263Z,4.73
2018-08-22T08:55:39.579Z,4.33
2018-08-22T08:58:08.886Z,4.53
2018-08-22T09:00:38.203Z,5.07
2018-08-22T09:03:07.500Z,4.90
2018-08-22T09:05:36.763Z,4.83
2018-08-22T09:08:06.051Z,4.73
2018-08-22T09:10:35.415Z,5.33
2018-08-22T09:13:06.735Z,4.87
2018-08-22T09:15:36.194Z,5.30
2018-08-22T09:18:05.521Z,5.20
2018-08-22T09:20:34.850Z,4.78
2018-08-22T09:23:04.282Z,5.00
2018-08-22T09:25:33.620Z,4.92
2018-08-22T09:28:02.904Z,5.00
2018-08-22T09:30:32.225Z,5.10
2018-08-22T09:33:01.730Z,4.95
2018-08-22T09:35:31.379Z,5.17
2018-08-22T09:38:00.759Z,5.25
2018-08-22T09:40:30.208Z,5.00
2018-08-22T09:42:59.919Z,5.22
2018-08-22T09:45:29.272Z,5.00
2018-08-22T09:47:58.659Z,5.17
2018-08-22T09:50:28.033Z,4.62
2018-08-22T09:52:57.340Z,4.90
2018-08-22T09:55:26.647Z,5.03
2018-08-22T09:57:55.963Z,4.95
2018-08-22T10:00:30.472Z,4.90
2018-08-22T10:02:59.776Z,4.75
2018-08-22T10:05:29.135Z,4.90
2018-08-22T10:07:58.456Z,4.72
2018-08-22T10:10:27.867Z,6.00
2018-08-22T10:12:57.202Z,4.85
2018-08-22T10:15:26.548Z,5.33
2018-08-22T10:17:57.935Z,5.15
2018-08-22T10:20:27.232Z,4.92
2018-08-22T10:22:56.618Z,4.87
2018-08-22T10:25:25.909Z,5.53
2018-08-22T10:27:55.255Z,4.95
2018-08-22T10:30:24.560Z,5.70
2018-08-22T10:32:54.199Z,5.33
2018-08-22T10:35:23.455Z,5.30
2018-08-22T10:37:52.708Z,9.00
2018-08-22T10:40:22.091Z,5.30
2018-08-22T10:42:52.306Z,4.78
2018-08-22T10:45:21.704Z,5.15
2018-08-22T10:47:54.745Z,5.58
2018-08-22T10:50:24.091Z,5.72
2018-08-22T10:52:53.451Z,5.03
2018-08-22T10:55:22.767Z,5.17
2018-08-22T10:57:52.063Z,4.85
2018-08-22T11:00:21.300Z,5.25
2018-08-22T11:02:50.639Z,5.17
2018-08-22T11:05:19.962Z,5.10
2018-08-22T11:07:49.352Z,5.30
2018-08-22T11:10:18.671Z,5.08
2018-08-22T11:12:48.108Z,5.37
2018-08-22T11:15:17.390Z,5.25
2018-08-22T11:17:46.706Z,5.62
2018-08-22T11:20:15.987Z,4.83
2018-08-22T11:22:50.117Z,4.45
2018-08-22T11:25:30.165Z,5.28
2018-08-22T11:28:10.279Z,4.83
2018-08-22T11:30:50.291Z,5.92
2018-08-22T11:33:30.494Z,5.08
2018-08-22T11:37:01.018Z,5.22
2018-08-22T11:39:30.460Z,5.10
2018-08-22T11:41:59.830Z,4.90
2018-08-22T11:44:28.617Z,4.92
2018-08-22T11:46:57.442Z,4.85
2018-08-22T11:49:26.190Z,4.10
2018-08-22T11:51:55.060Z,5.20
2018-08-22T11:54:23.829Z,4.72
2018-08-22T11:56:52.640Z,4.60
2018-08-22T11:59:21.455Z,4.87
2018-08-22T12:01:50.640Z,4.35
2018-08-22T12:04:19.733Z,4.47
2018-08-22T12:06:48.498Z,4.85
2018-08-22T12:09:17.301Z,4.65
2018-08-22T12:11:46.074Z,5.00
2018-08-22T12:14:14.920Z,4.03
2018-08-22T12:16:43.702Z,4.33
2018-08-22T12:19:12.566Z,4.97
2018-08-22T12:21:42.054Z,4.25
2018-08-22T12:24:10.834Z,4.40
2018-08-22T12:26:39.603Z,4.15
2018-08-22T12:29:08.394Z,4.95
2018-08-22T12:31:37.152Z,4.30
2018-08-22T12:34:06.010Z,5.12
2018-08-22T12:36:34.737Z,4.25
2018-08-22T12:39:03.724Z,4.53
2018-08-22T12:41:32.514Z,4.28
2018-08-22T12:44:01.295Z,4.03
2018-08-22T12:46:30.125Z,3.60
2018-08-22T12:48:58.969Z,3.77
2018-08-22T12:51:27.737Z,4.05
2018-08-22T12:53:56.570Z,3.90
2018-08-22T12:56:25.315Z,4.00
2018-08-22T12:58:54.152Z,4.05
2018-08-22T13:01:22.926Z,4.03
2018-08-22T13:03:51.700Z,4.58
2018-08-22T13:06:20.470Z,3.72
2018-08-22T13:08:49.271Z,4.15
2018-08-22T13:11:18.125Z,4.47
2018-08-22T13:13:46.891Z,4.30
2018-08-22T13:16:15.638Z,4.10
2018-08-22T13:18:44.434Z,3.90
2018-08-22T13:21:13.242Z,4.53
2018-08-22T13:23:41.997Z,3.40
2018-08-22T13:26:10.821Z,3.92
2018-08-22T13:28:39.624Z,4.08
2018-08-22T13:31:08.429Z,3.50
2018-08-22T13:33:37.187Z,3.70
2018-08-22T13:38:53.417Z,4.37
2018-08-22T13:41:22.215Z,3.58
2018-08-22T13:43:51.175Z,3.70
2018-08-22T13:46:19.949Z,3.83
2018-08-22T13:51:34.742Z,3.60
2018-08-22T13:54:03.605Z,3.85
2018-08-22T13:56:32.363Z,4.35
2018-08-22T13:59:01.175Z,4.33
2018-08-22T14:01:30.068Z,4.00
2018-08-22T14:03:58.853Z,4.10
2018-08-22T14:06:27.727Z,4.17
2018-08-22T14:08:56.597Z,4.17
2018-08-22T14:11:25.381Z,4.60
2018-08-22T14:13:54.207Z,3.45
2018-08-22T14:16:35.679Z,3.85
2018-08-22T14:19:04.546Z,3.90
2018-08-22T14:21:33.403Z,4.30
2018-08-22T14:24:02.230Z,3.85
2018-08-22T14:26:31.092Z,4.25
2018-08-22T14:28:59.972Z,4.22
2018-08-22T14:31:28.751Z,4.55
2018-08-22T14:33:57.531Z,4.62
2018-08-22T14:36:26.378Z,4.22
2018-08-22T14:38:55.224Z,3.65
2018-08-22T14:41:23.995Z,3.70
2018-08-22T14:43:52.839Z,3.85
2018-08-22T14:46:21.636Z,3.02
2018-08-22T14:48:50.491Z,3.50
2018-08-22T14:51:19.438Z,3.47
2018-08-22T14:53:48.342Z,3.42
2018-08-22T14:56:17.176Z,3.52
2018-08-22T14:58:45.983Z,3.95
2018-08-22T15:01:14.721Z,3.55
2018-08-22T15:03:43.534Z,3.17
2018-08-22T15:06:12.302Z,3.52
2018-08-22T15:08:41.146Z,3.15
2018-08-22T15:11:09.981Z,3.25
2018-08-22T15:13:38.769Z,3.55
2018-08-22T15:16:07.599Z,3.62
2018-08-22T15:18:36.346Z,3.83
2018-08-22T15:21:05.288Z,3.25
2018-08-22T15:23:34.095Z,3.98
2018-08-22T15:26:02.899Z,3.70
2018-08-22T15:28:31.703Z,3.30
2018-08-22T15:31:00.477Z,3.27
2018-08-22T15:33:29.314Z,3.12
2018-08-22T15:35:58.113Z,3.72
2018-08-22T15:38:26.948Z,3.35
2018-08-22T15:40:55.798Z,3.72
2018-08-22T15:43:24.507Z,3.45
2018-08-22T15:45:53.310Z,3.67
2018-08-22T15:48:22.094Z,3.40
2018-08-22T15:50:50.882Z,3.45
2018-08-22T15:53:19.687Z,3.17
2018-08-22T15:55:48.474Z,3.15
2018-08-22T15:58:17.314Z,3.37
2018-08-22T16:00:54.269Z,3.60
2018-08-22T16:03:24.197Z,4.67
2018-08-22T16:05:53.914Z,2.80
2018-08-22T16:08:26.800Z,3.22
2018-08-22T16:10:55.795Z,3.20
2018-08-22T16:13:29.659Z,2.60
2018-08-22T16:16:01.093Z,2.77
2018-08-22T16:18:29.991Z,2.67
2018-08-22T16:21:00.831Z,2.70
2018-08-22T16:23:31.079Z,3.30
2018-08-22T16:26:01.016Z,2.75
2018-08-22T16:28:40.179Z,2.90
2018-08-22T16:31:08.993Z,3.00
2018-08-22T16:33:38.937Z,2.90
2018-08-22T16:36:08.533Z,3.00
2018-08-22T16:38:37.329Z,3.00
2018-08-22T16:41:06.177Z,3.25
2018-08-22T16:43:42.000Z,3.30
2018-08-22T16:46:13.166Z,2.90
2018-08-22T16:48:43.061Z,3.37
2018-08-22T16:51:11.847Z,3.42
2018-08-22T16:53:40.626Z,2.85
2018-08-22T16:56:09.426Z,2.85
2018-08-22T16:58:38.219Z,3.47
2018-08-22T17:01:07.020Z,3.42
2018-08-22T17:03:35.851Z,3.02
2018-08-22T17:06:09.777Z,3.90
2018-08-22T17:08:38.634Z,3.58
2018-08-22T17:11:08.300Z,3.22
2018-08-22T17:13:52.731Z,3.00
2018-08-22T17:16:22.410Z,3.08
2018-08-22T17:18:51.959Z,3.35
2018-08-22T17:21:21.260Z,2.80
2018-08-22T17:23:50.989Z,3.15
2018-08-22T17:26:21.226Z,3.35
2018-08-22T17:28:52.032Z,3.58
2018-08-22T17:31:22.204Z,3.30
2018-08-22T17:33:53.795Z,3.80
2018-08-22T17:36:23.247Z,3.30
2018-08-22T17:38:54.026Z,4.70
2018-08-22T17:41:24.829Z,3.35
2018-08-22T17:44:04.678Z,3.70
2018-08-22T17:46:39.438Z,3.55
2018-08-22T17:49:08.787Z,3.10
2018-08-22T17:51:53.696Z,3.80
2018-08-22T17:54:23.123Z,3.42
2018-08-22T17:57:02.289Z,2.98
2018-08-22T17:59:31.603Z,3.45
2018-08-22T18:02:01.024Z,3.55
2018-08-22T18:04:40.066Z,3.25
2018-08-22T18:07:09.425Z,3.02
2018-08-22T18:09:38.755Z,3.33
2018-08-22T18:12:08.084Z,3.10
2018-08-22T18:14:37.449Z,3.47
2018-08-22T18:17:07.319Z,3.60
2018-08-22T18:19:38.681Z,3.70
2018-08-22T18:22:08.650Z,3.45
2018-08-22T18:24:48.495Z,3.15
2018-08-22T18:27:17.839Z,3.30
2018-08-22T18:29:47.509Z,3.55
2018-08-22T18:32:17.228Z,3.85
2018-08-22T18:34:58.865Z,3.58
2018-08-22T18:37:29.614Z,2.98
2018-08-22T18:40:10.231Z,3.72
2018-08-22T18:42:39.872Z,2.80
2018-08-22T18:45:09.191Z,3.20
2018-08-22T18:47:38.552Z,3.30
2018-08-22T18:50:07.879Z,3.02
2018-08-22T18:52:37.188Z,3.27
2018-08-22T18:55:06.611Z,3.95
2018-08-22T18:57:35.754Z,3.50
2018-08-22T19:00:07.394Z,3.53
2018-08-22T19:02:36.675Z,3.50
2018-08-22T19:05:27.503Z,3.47
2018-08-22T19:08:06.895Z,3.33
2018-08-22T19:10:38.173Z,3.90
2018-08-22T19:13:26.524Z,3.37
2018-08-22T19:16:11.506Z,3.53
2018-08-22T19:18:40.939Z,3.37
2018-08-22T19:21:11.287Z,3.43
2018-08-22T19:23:40.827Z,3.60
2018-08-22T19:26:10.135Z,3.77
2018-08-22T19:28:54.434Z,3.53
2018-08-22T19:31:23.785Z,4.00
2018-08-22T19:33:53.135Z,3.60
2018-08-22T19:36:22.459Z,3.80
2018-08-22T19:38:56.243Z,3.00
2018-08-22T19:41:30.571Z,3.80
2018-08-22T19:43:59.939Z,3.50
2018-08-22T19:46:29.224Z,3.27
2018-08-22T19:48:58.983Z,3.33
2018-08-22T19:51:28.195Z,3.33
2018-08-22T19:54:08.732Z,3.90
2018-08-22T19:56:38.035Z,3.93
2018-08-22T19:59:07.382Z,4.13
2018-08-22T20:01:37.929Z,3.47
2018-08-22T20:04:07.331Z,3.57
2018-08-22T20:06:36.914Z,3.83
2018-08-22T20:09:07.112Z,3.67
2018-08-22T20:11:36.491Z,3.83
2018-08-22T20:14:06.838Z,3.23
2018-08-22T20:16:36.320Z,4.07
2018-08-22T20:19:05.872Z,4.13
2018-08-22T20:21:37.017Z,3.67
2018-08-22T20:24:08.042Z,3.97
2018-08-22T20:26:37.795Z,4.03
2018-08-22T20:29:07.243Z,3.30
2018-08-22T20:31:37.519Z,4.17
2018-08-22T20:34:12.556Z,3.90
2018-08-22T20:36:46.046Z,3.63
2018-08-22T20:39:15.510Z,4.17
2018-08-22T20:41:45.110Z,3.83
2018-08-22T20:44:22.445Z,3.77
2018-08-22T20:46:51.748Z,4.10
2018-08-22T20:49:21.614Z,4.10
2018-08-22T20:51:50.901Z,3.77
2018-08-22T20:54:22.444Z,3.60
2018-08-22T20:57:01.573Z,3.57
2018-08-22T20:59:30.847Z,3.53
2018-08-22T21:02:03.475Z,3.80
2018-08-22T21:04:32.898Z,3.60
2018-08-22T21:07:02.272Z,4.13
2018-08-22T21:09:31.590Z,3.77
2018-08-22T21:12:01.003Z,3.83
2018-08-22T21:14:34.716Z,4.20
2018-08-22T21:17:03.955Z,4.67
2018-08-22T21:19:33.191Z,3.83
2018-08-22T21:22:02.635Z,3.60
2018-08-22T21:24:32.022Z,3.83
2018-08-22T21:27:01.325Z,3.73
2018-08-22T21:29:30.677Z,4.07
2018-08-22T21:32:00.050Z,4.10
2018-08-22T21:34:29.379Z,4.27
2018-08-22T21:36:58.871Z,3.47
2018-08-22T21:39:28.226Z,3.67
2018-08-22T21:41:57.624Z,4.00
2018-08-22T21:44:39.535Z,3.77
2018-08-22T21:47:09.635Z,3.63
2018-08-22T21:49:38.930Z,4.97
2018-08-22T21:52:08.336Z,4.63
2018-08-22T21:54:37.704Z,4.10
2018-08-22T21:57:07.075Z,4.83
2018-08-22T21:59:36.404Z,4.67
2018-08-22T22:02:06.786Z,4.40
2018-08-22T22:04:37.332Z,4.40
2018-08-22T22:07:07.821Z,4.57
2018-08-22T22:09:46.567Z,4.57
2018-08-22T22:12:21.051Z,4.80
2018-08-22T22:14:50.360Z,4.63
2018-08-22T22:17:19.632Z,5.00
2018-08-22T22:19:48.917Z,4.20
2018-08-22T22:22:18.364Z,4.53
2018-08-22T22:24:56.011Z,5.40
2018-08-22T22:27:25.619Z,4.93
2018-08-22T22:30:05.314Z,4.97
2018-08-22T22:32:35.078Z,4.87
2018-08-22T22:40:55.055Z,4.87
2018-08-22T22:43:24.366Z,4.87
2018-08-22T22:45:53.663Z,4.80
2018-08-22T22:48:33.723Z,5.17
2018-08-22T22:51:03.076Z,4.67
2018-08-22T22:53:32.355Z,4.57
2018-08-22T22:56:01.729Z,4.57
2018-08-22T22:58:31.219Z,5.07
2018-08-22T23:01:00.512Z,5.13
2018-08-22T23:03:29.743Z,5.20
2018-08-22T23:05:59.044Z,5.30
2018-08-22T23:08:28.368Z,5.33
2018-08-22T23:10:57.651Z,4.13
2018-08-22T23:13:28.602Z,4.60
2018-08-22T23:15:57.932Z,4.80
2018-08-22T23:18:27.279Z,5.20
2018-08-22T23:20:56.587Z,4.50
2018-08-22T23:23:32.852Z,4.93
2018-08-22T23:26:09.042Z,4.80
2018-08-22T23:28:38.318Z,4.80
2018-08-22T23:31:07.567Z,4.17
2018-08-22T23:33:36.854Z,4.57
2018-08-22T23:36:06.162Z,4.10
2018-08-22T23:38:37.361Z,4.10
2018-08-22T23:41:06.676Z,4.37
2018-08-22T23:43:55.132Z,4.77
2018-08-22T23:46:24.464Z,4.77
2018-08-22T23:48:56.866Z,4.50
2018-08-22T23:51:26.303Z,4.40
2018-08-22T23:53:59.713Z,4.17
2018-08-22T23:56:29.996Z,4.60
2018-08-22T23:58:59.764Z,5.17
